Time;durP1;ratioP1;P1;durP2;ratioP2;P2;SDS_P1;SDS_P2;PMS_P1;PMS_P2;Temp;Humidity;BMP_temperature;BMP_pressure;BME280_temperature;BME280_humidity;BME280_pressure;Samples;Min_cycle;Max_cycle;Signal;HPM_P1;HPM_P2
2022/04/25 00:01:58;;;;;;;17.23;12.27;;;7.40;99.90;;;;;;5045595;28;20731;-84
2022/04/25 00:04:23;;;;;;;21.23;12.55;;;7.50;99.90;;;;;;5047359;28;20425;-82
2022/04/25 00:06:49;;;;;;;17.07;12.47;;;7.50;99.90;;;;;;5047407;28;20380;-83
2022/04/25 00:09:14;;;;;;;16.80;12.37;;;7.50;99.90;;;;;;5045928;28;20920;-83
2022/04/25 00:11:40;;;;;;;17.13;12.02;;;7.40;99.90;;;;;;5043421;28;20862;-82
2022/04/25 00:14:07;;;;;;;16.98;11.93;;;7.40;99.90;;;;;;5045137;28;20452;-82
2022/04/25 00:16:33;;;;;;;17.02;12.43;;;7.50;99.90;;;;;;5043838;28;20423;-83
2022/04/25 00:19:00;;;;;;;18.17;12.38;;;7.50;99.90;;;;;;5045285;28;20376;-81
2022/04/25 00:21:26;;;;;;;16.05;11.98;;;7.60;99.90;;;;;;5031394;28;20388;-82
2022/04/25 00:23:51;;;;;;;17.08;11.98;;;7.50;99.90;;;;;;5029837;28;20385;-83
2022/04/25 00:26:17;;;;;;;17.98;12.10;;;7.60;99.90;;;;;;5030380;28;20883;-82
2022/04/25 00:28:43;;;;;;;17.00;12.47;;;7.50;99.90;;;;;;5026451;28;20394;-82
2022/04/25 00:31:08;;;;;;;17.43;12.60;;;7.50;99.90;;;;;;5032331;28;20394;-83
2022/04/25 00:33:34;;;;;;;15.73;12.00;;;7.50;99.90;;;;;;5026788;28;20932;-82
2022/04/25 00:36:00;;;;;;;16.40;12.73;;;7.40;99.90;;;;;;5031185;28;20454;-83
2022/04/25 00:38:25;;;;;;;17.85;12.32;;;7.40;99.90;;;;;;5027387;28;20390;-83
2022/04/25 00:40:51;;;;;;;15.60;12.13;;;7.50;99.90;;;;;;5026866;28;20386;-82
2022/04/25 00:43:17;;;;;;;19.58;13.18;;;7.60;99.90;;;;;;5027323;28;20394;-83
2022/04/25 00:45:42;;;;;;;17.50;12.77;;;7.50;99.90;;;;;;5029715;28;20494;-82
2022/04/25 00:48:08;;;;;;;17.92;12.52;;;7.50;99.90;;;;;;5066103;28;20413;-83
2022/04/25 00:50:38;;;;;;;16.67;12.37;;;7.40;99.90;;;;;;5045064;28;20387;-83
2022/04/25 00:53:05;;;;;;;17.20;12.02;;;7.50;99.90;;;;;;5046336;28;20422;-82
2022/04/25 00:55:30;;;;;;;17.77;12.70;;;7.50;99.90;;;;;;5034671;28;20386;-83
2022/04/25 00:57:58;;;;;;;15.77;12.60;;;7.50;99.90;;;;;;5026201;28;20412;-83
2022/04/25 01:00:24;;;;;;;19.50;12.70;;;7.60;99.90;;;;;;5025875;28;20389;-83
2022/04/25 01:02:50;;;;;;;19.05;12.68;;;7.50;99.90;;;;;;5030494;28;20394;-82
2022/04/25 01:05:16;;;;;;;18.07;12.70;;;7.50;99.90;;;;;;5026265;28;20413;-82
2022/04/25 01:07:42;;;;;;;17.70;13.13;;;7.50;99.90;;;;;;5025634;28;20458;-83
2022/04/25 01:10:10;;;;;;;18.27;13.50;;;7.40;99.90;;;;;;5031620;28;20399;-83
2022/04/25 01:12:36;;;;;;;16.77;13.07;;;7.30;99.90;;;;;;5036865;28;20752;-83
2022/04/25 01:15:10;;;;;;;19.50;14.07;;;7.30;99.90;;;;;;5025144;28;20396;-83
2022/04/25 01:17:36;;;;;;;20.98;13.85;;;7.30;99.90;;;;;;5030735;28;20492;-83
2022/04/25 01:20:03;;;;;;;18.55;14.52;;;7.20;99.90;;;;;;5070006;28;20473;-83
2022/04/25 01:22:48;;;;;;;17.83;13.45;;;7.20;99.90;;;;;;5066393;28;20905;-83
2022/04/25 01:28:01;;;;;;;19.42;13.80;;;7.20;99.90;;;;;;5026639;28;20450;-81
2022/04/25 01:30:28;;;;;;;17.83;13.18;;;7.20;99.90;;;;;;5029503;28;20397;-83
2022/04/25 01:32:53;;;;;;;17.25;13.38;;;7.20;99.90;;;;;;5026069;28;20426;-83
2022/04/25 01:35:19;;;;;;;17.63;12.95;;;7.30;99.90;;;;;;5030413;28;20867;-83
2022/04/25 01:37:45;;;;;;;17.80;13.65;;;7.30;99.90;;;;;;5044730;28;20376;-83
2022/04/25 01:40:11;;;;;;;16.50;12.87;;;7.40;99.90;;;;;;5042846;28;20376;-83
2022/04/25 01:42:37;;;;;;;17.50;13.32;;;7.40;99.90;;;;;;5044433;28;20399;-84
2022/04/25 01:45:03;;;;;;;18.60;13.07;;;7.40;99.90;;;;;;5078044;28;20921;-83
2022/04/25 01:47:28;;;;;;;16.02;12.80;;;7.40;99.90;;;;;;5044918;28;20392;-83
2022/04/25 01:49:55;;;;;;;18.60;13.47;;;7.40;99.90;;;;;;5039822;28;21746;-83
2022/04/25 01:52:32;;;;;;;18.80;14.30;;;7.40;99.90;;;;;;5025668;28;20390;-83
2022/04/25 01:54:58;;;;;;;19.33;13.73;;;7.40;99.90;;;;;;5026808;28;20891;-83
2022/04/25 01:57:25;;;;;;;18.85;13.30;;;7.30;99.90;;;;;;5027347;28;20366;-82
2022/04/25 01:59:51;;;;;;;17.88;13.77;;;7.30;99.90;;;;;;5031611;28;20728;-83
2022/04/25 02:02:17;;;;;;;18.15;13.07;;;7.30;99.90;;;;;;5057961;28;20393;-83
2022/04/25 02:04:43;;;;;;;20.08;13.80;;;7.40;99.90;;;;;;5035608;28;20388;-82
2022/04/25 02:07:10;;;;;;;17.83;12.98;;;7.20;99.90;;;;;;5043796;28;20399;-82
2022/04/25 02:09:36;;;;;;;19.80;13.85;;;7.30;99.90;;;;;;5042048;28;20564;-84
2022/04/25 02:12:03;;;;;;;18.42;13.48;;;7.30;99.90;;;;;;5045353;28;20399;-83
2022/04/25 02:14:29;;;;;;;19.10;13.73;;;7.30;99.90;;;;;;5041902;28;20508;-82
2022/04/25 02:16:59;;;;;;;18.38;14.00;;;7.20;99.90;;;;;;5028393;28;20404;-84
2022/04/25 02:19:28;;;;;;;21.50;14.23;;;7.10;99.90;;;;;;5036798;28;20476;-83
2022/04/25 02:21:55;;;;;;;18.02;13.77;;;7.20;99.90;;;;;;5028443;28;20863;-83
2022/04/25 02:24:20;;;;;;;19.23;14.13;;;7.30;99.90;;;;;;5033440;28;20372;-82
2022/04/25 02:26:48;;;;;;;20.30;13.83;;;7.20;99.90;;;;;;5029890;28;20385;-83
2022/04/25 02:29:14;;;;;;;18.23;13.77;;;7.10;99.90;;;;;;5028510;28;20978;-83
2022/04/25 02:31:40;;;;;;;19.27;14.27;;;7.20;99.90;;;;;;5061886;28;20453;-82
2022/04/25 02:34:05;;;;;;;19.02;14.20;;;7.20;99.90;;;;;;5034606;28;21796;-83
2022/04/25 02:36:31;;;;;;;20.73;13.77;;;7.20;99.90;;;;;;5060923;28;20401;-84
2022/04/25 02:38:56;;;;;;;20.63;14.03;;;7.20;99.90;;;;;;5035006;28;20384;-83
2022/04/25 02:41:22;;;;;;;17.73;14.30;;;7.20;99.90;;;;;;5028074;28;20416;-83
2022/04/25 02:43:48;;;;;;;20.25;14.60;;;7.00;99.90;;;;;;5026961;28;20418;-83
2022/04/25 02:46:15;;;;;;;22.20;14.60;;;7.00;99.90;;;;;;5028843;28;20434;-83
2022/04/25 02:48:43;;;;;;;17.17;14.40;;;7.10;99.90;;;;;;5038434;28;20604;-83
2022/04/25 02:51:11;;;;;;;19.00;14.40;;;7.10;99.90;;;;;;5048112;28;20513;-83
2022/04/25 02:53:37;;;;;;;20.65;14.48;;;7.00;99.90;;;;;;5047197;28;20543;-82
2022/04/25 02:56:03;;;;;;;19.60;14.13;;;7.00;99.90;;;;;;5038497;28;20479;-83
2022/04/25 02:58:31;;;;;;;18.83;14.52;;;6.90;99.90;;;;;;5027574;28;20413;-84
2022/04/25 03:00:57;;;;;;;18.67;14.38;;;6.90;99.90;;;;;;5041306;28;20453;-83
2022/04/25 03:03:26;;;;;;;19.08;13.85;;;6.90;99.90;;;;;;5041000;28;20376;-83
2022/04/25 03:05:53;;;;;;;22.42;14.88;;;6.90;99.90;;;;;;5040903;28;20388;-84
2022/04/25 03:08:21;;;;;;;18.95;14.27;;;6.90;99.90;;;;;;5048212;28;20372;-83
2022/04/25 03:10:48;;;;;;;19.38;14.20;;;6.80;99.90;;;;;;5038775;28;20419;-84
2022/04/25 03:13:15;;;;;;;20.85;14.45;;;6.80;99.90;;;;;;5040535;28;20391;-83
2022/04/25 03:15:46;;;;;;;21.70;14.50;;;6.80;99.90;;;;;;5047245;28;20388;-83
2022/04/25 03:18:21;;;;;;;20.15;14.07;;;6.80;99.90;;;;;;5039126;28;20545;-83
2022/04/25 03:20:49;;;;;;;19.85;14.52;;;7.00;99.90;;;;;;5043529;28;21509;-82
2022/04/25 03:23:16;;;;;;;18.95;14.32;;;6.90;99.90;;;;;;5029714;28;20432;-82
2022/04/25 03:25:42;;;;;;;16.30;13.45;;;6.90;99.90;;;;;;5040606;28;20384;-83
2022/04/25 03:28:07;;;;;;;18.30;13.75;;;6.90;99.90;;;;;;5030674;28;20418;-85
2022/04/25 03:30:33;;;;;;;16.83;13.53;;;6.80;99.90;;;;;;5046501;28;20383;-83
2022/04/25 03:33:00;;;;;;;17.33;13.10;;;6.80;99.90;;;;;;5038691;28;20541;-83
2022/04/25 03:35:26;;;;;;;19.20;14.27;;;6.80;99.90;;;;;;5060002;28;20390;-84
2022/04/25 03:37:52;;;;;;;18.77;13.98;;;6.80;99.90;;;;;;5028606;28;20728;-84
2022/04/25 03:40:19;;;;;;;20.50;14.00;;;6.70;99.90;;;;;;5044874;28;20396;-85
2022/04/25 03:42:45;;;;;;;18.95;13.98;;;6.60;99.90;;;;;;5037743;28;20382;-84
2022/04/25 03:45:15;;;;;;;17.42;13.90;;;6.70;99.90;;;;;;5027538;28;20452;-83
2022/04/25 03:47:42;;;;;;;17.60;13.50;;;6.80;99.90;;;;;;5026597;28;20511;-85
2022/04/25 03:50:08;;;;;;;17.10;13.85;;;6.80;99.90;;;;;;5037013;28;20471;-84
2022/04/25 03:52:35;;;;;;;17.47;14.07;;;6.60;99.90;;;;;;5046812;28;20419;-84
2022/04/25 03:57:51;;;;;;;20.13;13.85;;;6.60;99.90;;;;;;5037246;28;20422;-84
2022/04/25 04:00:17;;;;;;;16.60;13.60;;;6.60;99.90;;;;;;5042096;28;20389;-83
2022/04/25 04:02:43;;;;;;;17.20;12.87;;;6.60;99.90;;;;;;5027857;28;20377;-83
2022/04/25 04:05:09;;;;;;;15.23;12.60;;;6.80;99.90;;;;;;5027562;28;20400;-82
2022/04/25 04:07:35;;;;;;;14.95;12.60;;;6.60;99.90;;;;;;5036880;28;20380;-81
2022/04/25 04:10:00;;;;;;;19.35;13.02;;;6.80;99.90;;;;;;5046537;28;20403;-82
2022/04/25 04:12:34;;;;;;;17.47;13.23;;;6.80;99.90;;;;;;5034992;28;20921;-81
2022/04/25 04:15:05;;;;;;;15.27;12.32;;;6.80;99.90;;;;;;5026150;28;20394;-82
2022/04/25 04:17:34;;;;;;;16.05;13.30;;;6.70;99.90;;;;;;5038429;28;20418;-81
2022/04/25 04:20:02;;;;;;;17.55;12.93;;;6.70;99.90;;;;;;5047499;28;20429;-82
2022/04/25 04:22:30;;;;;;;16.13;12.77;;;6.70;99.90;;;;;;5040441;28;20391;-82
2022/04/25 04:25:00;;;;;;;18.47;13.17;;;6.80;99.90;;;;;;5025729;28;20381;-81
2022/04/25 04:27:31;;;;;;;17.55;12.18;;;6.80;99.90;;;;;;5039126;28;20396;-81
2022/04/25 04:29:58;;;;;;;15.40;12.60;;;6.80;99.90;;;;;;5044972;28;20919;-82
2022/04/25 04:32:29;;;;;;;16.90;12.02;;;6.70;99.90;;;;;;5043107;28;20395;-82
2022/04/25 04:34:55;;;;;;;15.65;11.93;;;6.90;99.90;;;;;;5027658;28;20385;-82
2022/04/25 04:37:20;;;;;;;15.85;12.15;;;6.90;99.90;;;;;;5027017;28;20385;-83
2022/04/25 04:39:46;;;;;;;16.83;11.68;;;6.90;99.90;;;;;;5033744;28;20380;-84
2022/04/25 04:42:11;;;;;;;15.20;11.73;;;6.90;99.90;;;;;;5045346;28;20388;-82
2022/04/25 04:44:37;;;;;;;14.77;11.50;;;6.70;99.90;;;;;;5039072;28;20449;-82
2022/04/25 04:47:03;;;;;;;14.25;11.00;;;6.60;99.90;;;;;;5039546;28;20467;-81
2022/04/25 04:49:29;;;;;;;15.43;11.43;;;6.70;99.90;;;;;;5036225;28;20840;-82
2022/04/25 04:51:54;;;;;;;14.25;10.80;;;6.70;99.90;;;;;;5028080;28;20414;-82
2022/04/25 04:54:20;;;;;;;13.90;10.75;;;6.80;99.90;;;;;;5034732;28;20912;-82
2022/04/25 04:56:46;;;;;;;15.07;10.73;;;6.90;99.90;;;;;;5040791;28;20481;-82
2022/04/25 04:59:11;;;;;;;13.77;10.17;;;6.90;99.90;;;;;;5042039;28;20415;-83
2022/04/25 05:01:38;;;;;;;13.45;10.50;;;6.80;99.90;;;;;;5042071;28;20455;-82
2022/04/25 05:04:04;;;;;;;11.93;9.82;;;6.80;99.90;;;;;;5041099;28;20397;-81
2022/04/25 05:06:30;;;;;;;14.88;10.60;;;6.90;99.90;;;;;;5041369;28;20384;-83
2022/04/25 05:08:56;;;;;;;12.70;10.15;;;6.80;99.90;;;;;;5037437;28;20382;-84
2022/04/25 05:11:21;;;;;;;12.68;9.88;;;6.90;99.90;;;;;;5041067;28;20883;-84
2022/04/25 05:13:48;;;;;;;12.77;9.75;;;7.00;99.90;;;;;;5042969;28;20446;-82
2022/04/25 05:16:14;;;;;;;12.07;9.52;;;6.90;99.90;;;;;;5040132;28;20494;-83
2022/04/25 05:18:39;;;;;;;12.88;9.85;;;6.90;99.90;;;;;;5038855;28;20915;-83
2022/04/25 05:21:05;;;;;;;12.13;9.93;;;6.80;99.90;;;;;;5042215;28;20889;-83
2022/04/25 05:23:31;;;;;;;12.55;10.13;;;6.90;99.90;;;;;;5039318;28;20384;-83
2022/04/25 05:25:58;;;;;;;11.25;9.18;;;6.90;99.90;;;;;;5040269;28;20475;-82
2022/04/25 05:28:29;;;;;;;12.15;9.05;;;6.90;99.90;;;;;;5039708;28;20395;-82
2022/04/25 05:30:54;;;;;;;12.33;9.50;;;6.90;99.90;;;;;;5040006;28;20404;-82
2022/04/25 05:33:20;;;;;;;12.10;9.60;;;6.80;99.90;;;;;;5041544;28;20406;-81
2022/04/25 05:35:46;;;;;;;10.67;9.07;;;6.90;99.90;;;;;;5041843;28;20898;-83
2022/04/25 05:38:12;;;;;;;11.50;9.03;;;6.90;99.90;;;;;;5040035;28;20954;-84
2022/04/25 05:40:42;;;;;;;13.60;9.73;;;6.90;99.90;;;;;;5041401;28;20436;-83
2022/04/25 05:43:08;;;;;;;13.18;8.98;;;7.10;99.90;;;;;;5041474;28;20376;-83
2022/04/25 05:45:34;;;;;;;11.50;8.85;;;7.20;99.90;;;;;;5043066;28;20893;-84
2022/04/25 05:48:00;;;;;;;12.23;9.43;;;7.10;99.90;;;;;;5039763;28;20408;-83
2022/04/25 05:53:12;;;;;;;11.68;9.43;;;7.40;99.90;;;;;;5042387;28;20420;-83
2022/04/25 05:55:41;;;;;;;14.00;9.37;;;7.40;99.90;;;;;;5041471;28;20909;-83
2022/04/25 05:58:07;;;;;;;15.48;9.93;;;7.40;99.90;;;;;;5046254;28;20445;-84
2022/04/25 06:00:34;;;;;;;13.23;8.80;;;7.50;99.90;;;;;;5044775;28;20384;-83
2022/04/25 06:03:01;;;;;;;12.45;9.27;;;7.50;99.90;;;;;;5043713;28;20376;-83
2022/04/25 06:05:29;;;;;;;11.55;8.65;;;7.50;99.90;;;;;;5043859;28;20388;-83
2022/04/25 06:07:56;;;;;;;12.57;9.05;;;7.50;99.90;;;;;;5045272;28;20498;-82
2022/04/25 06:10:23;;;;;;;10.90;8.75;;;7.40;99.90;;;;;;5042986;28;20389;-82
2022/04/25 06:12:51;;;;;;;11.55;8.80;;;7.50;99.90;;;;;;5044125;28;20459;-83
2022/04/25 06:15:20;;;;;;;13.75;8.25;;;7.50;99.90;;;;;;5044333;28;20863;-83
2022/04/25 06:17:46;;;;;;;11.85;9.00;;;7.50;99.90;;;;;;5043898;28;20378;-82
2022/04/25 06:20:11;;;;;;;10.93;8.43;;;7.50;99.90;;;;;;5041795;28;20708;-84
2022/04/25 06:22:38;;;;;;;10.97;8.67;;;7.60;99.90;;;;;;5044977;28;20376;-84
2022/04/25 06:25:05;;;;;;;10.02;8.68;;;7.60;99.90;;;;;;5044794;28;20380;-84
2022/04/25 06:27:31;;;;;;;12.73;9.02;;;7.60;99.90;;;;;;5041801;28;20454;-83
2022/04/25 06:29:57;;;;;;;11.75;8.93;;;7.50;99.90;;;;;;5041468;28;20372;-83
2022/04/25 06:32:23;;;;;;;12.40;8.80;;;7.40;99.90;;;;;;5045401;28;20384;-83
2022/04/25 06:34:49;;;;;;;11.00;8.68;;;7.60;99.90;;;;;;5043554;28;20897;-83
2022/04/25 06:37:15;;;;;;;9.93;8.55;;;7.60;99.90;;;;;;5040843;28;20383;-84
2022/04/25 06:39:41;;;;;;;11.60;8.35;;;7.80;99.90;;;;;;5045011;28;20862;-83
2022/04/25 06:42:10;;;;;;;12.07;8.80;;;7.90;99.90;;;;;;5046136;28;20414;-84
2022/04/25 06:44:37;;;;;;;11.48;7.97;;;7.90;99.90;;;;;;5042873;28;20392;-84
2022/04/25 06:47:03;;;;;;;12.38;8.32;;;7.80;99.90;;;;;;5042112;28;20396;-84
2022/04/25 06:49:28;;;;;;;12.20;7.85;;;7.80;99.90;;;;;;5047211;28;20395;-85
2022/04/25 06:51:59;;;;;;;9.67;8.27;;;7.80;99.90;;;;;;5043629;28;20385;-83
2022/04/25 06:54:27;;;;;;;9.83;8.00;;;7.90;99.90;;;;;;5072996;28;20936;-85
2022/04/25 06:56:54;;;;;;;13.05;8.15;;;8.10;99.90;;;;;;5044038;28;20846;-83
2022/04/25 06:59:21;;;;;;;10.37;7.47;;;8.00;99.90;;;;;;5046997;28;20380;-83
2022/04/25 07:01:48;;;;;;;9.55;7.40;;;8.00;99.90;;;;;;5042490;28;20392;-84
2022/04/25 07:04:16;;;;;;;10.18;7.93;;;8.00;99.90;;;;;;5041144;28;20477;-83
2022/04/25 07:06:44;;;;;;;10.88;7.80;;;8.10;99.90;;;;;;5042539;28;20422;-83
2022/04/25 07:09:13;;;;;;;8.75;7.43;;;8.10;99.90;;;;;;5029455;28;20467;-83
2022/04/25 07:11:43;;;;;;;10.43;7.40;;;8.10;99.90;;;;;;5041589;28;20771;-84
2022/04/25 07:14:17;;;;;;;10.02;7.30;;;8.20;99.90;;;;;;5043515;28;20818;-84
2022/04/25 07:16:51;;;;;;;8.15;6.88;;;8.40;99.90;;;;;;5041327;28;20750;-84
2022/04/25 07:19:18;;;;;;;7.85;6.28;;;8.50;99.90;;;;;;5043873;28;20438;-84
2022/04/25 07:30:00;;;;;;;9.65;6.60;;;8.80;99.90;;;;;;5041052;28;20422;-85
2022/04/25 07:32:27;;;;;;;9.57;6.32;;;8.90;99.90;;;;;;5045464;28;20387;-84
2022/04/25 07:34:53;;;;;;;9.52;7.18;;;9.10;99.90;;;;;;5044228;28;20379;-84
2022/04/25 07:37:22;;;;;;;8.83;6.70;;;9.00;99.90;;;;;;5042206;28;20389;-84
2022/04/25 07:39:48;;;;;;;9.10;7.05;;;8.70;99.90;;;;;;5041017;28;20754;-82
2022/04/25 07:42:15;;;;;;;9.15;7.00;;;8.60;99.90;;;;;;5045546;28;20807;-83
2022/04/25 07:44:42;;;;;;;8.48;6.65;;;8.70;99.90;;;;;;5041957;27;20387;-83
2022/04/25 07:47:08;;;;;;;9.27;6.88;;;8.70;99.90;;;;;;5042502;28;20407;-84
2022/04/25 07:49:34;;;;;;;10.10;7.07;;;8.70;99.90;;;;;;5043060;28;20438;-85
2022/04/25 07:52:00;;;;;;;9.10;6.80;;;8.60;99.90;;;;;;5046879;28;20377;-83
2022/04/25 07:54:26;;;;;;;9.68;6.78;;;8.70;99.90;;;;;;5045143;28;20392;-83
2022/04/25 07:56:52;;;;;;;10.10;6.82;;;9.00;99.90;;;;;;5042581;28;20721;-84
2022/04/25 07:59:18;;;;;;;9.68;6.88;;;9.20;99.90;;;;;;5044772;28;20999;-83
2022/04/25 08:01:44;;;;;;;10.80;7.22;;;9.40;99.90;;;;;;5043078;28;20412;-84
2022/04/25 08:04:11;;;;;;;8.48;6.20;;;9.50;99.90;;;;;;5034642;27;20385;-83
2022/04/25 08:06:37;;;;;;;10.07;6.35;;;9.70;99.90;;;;;;5051318;27;20891;-84
2022/04/25 08:09:03;;;;;;;10.20;7.03;;;10.10;99.90;;;;;;5028621;28;20755;-84
2022/04/25 08:11:29;;;;;;;9.03;6.17;;;10.00;99.90;;;;;;5039930;28;20385;-85
2022/04/25 08:19:24;;;;;;;9.90;5.90;;;10.30;99.90;;;;;;5042933;28;20379;-84
2022/04/25 08:21:50;;;;;;;10.03;6.57;;;10.30;99.90;;;;;;5039580;28;20743;-82
2022/04/25 08:24:19;;;;;;;9.13;6.50;;;10.10;99.90;;;;;;5036799;28;20385;-83
2022/04/25 08:26:45;;;;;;;7.32;5.32;;;9.90;99.90;;;;;;5061579;28;20489;-83
2022/04/25 08:29:13;;;;;;;8.80;6.50;;;10.10;99.90;;;;;;5027705;28;21048;-83
2022/04/25 08:31:39;;;;;;;8.95;6.07;;;10.20;99.90;;;;;;5035608;28;20400;-84
2022/04/25 08:34:06;;;;;;;10.27;5.90;;;10.20;99.90;;;;;;5039568;28;20429;-84
2022/04/25 08:36:32;;;;;;;8.10;5.93;;;10.50;99.90;;;;;;5032247;28;20386;-84
2022/04/25 08:38:58;;;;;;;8.57;6.00;;;10.70;99.90;;;;;;5029807;28;20390;-84
2022/04/25 08:41:43;;;;;;;7.28;5.50;;;10.70;99.90;;;;;;5028634;28;20879;-84
2022/04/25 08:44:10;;;;;;;10.20;6.25;;;10.70;99.90;;;;;;5059137;28;20398;-85
2022/04/25 08:46:38;;;;;;;9.02;5.88;;;10.70;99.90;;;;;;5027649;28;20402;-83
2022/04/25 08:49:05;;;;;;;8.90;6.27;;;11.00;99.90;;;;;;5036310;28;20875;-85
2022/04/25 08:51:34;;;;;;;6.65;5.63;;;11.30;99.90;;;;;;5047720;28;20380;-83
2022/04/25 08:54:02;;;;;;;9.45;6.30;;;11.50;99.90;;;;;;5035178;28;20435;-83
2022/04/25 08:56:29;;;;;;;8.57;5.90;;;11.50;99.90;;;;;;5028350;28;20492;-85
2022/04/25 08:58:56;;;;;;;7.88;6.00;;;11.70;99.90;;;;;;5031159;28;20387;-84
2022/04/25 09:01:22;;;;;;;10.48;6.45;;;11.40;99.90;;;;;;5034917;27;20392;-84
2022/04/25 09:03:48;;;;;;;9.07;6.43;;;11.00;99.90;;;;;;5027762;28;20390;-84
2022/04/25 09:06:13;;;;;;;9.32;6.22;;;10.60;99.90;;;;;;5028492;28;20377;-83
2022/04/25 09:08:39;;;;;;;8.87;5.80;;;10.40;99.90;;;;;;5028711;28;20396;-84
2022/04/25 09:13:49;;;;;;;6.97;5.68;;;10.90;99.90;;;;;;5028639;28;20425;-84
2022/04/25 09:16:16;;;;;;;6.80;5.93;;;11.00;99.90;;;;;;5027695;28;20378;-82
2022/04/25 09:18:42;;;;;;;7.80;5.90;;;10.70;99.90;;;;;;5032590;28;20505;-84
2022/04/25 09:21:18;;;;;;;8.98;5.65;;;10.70;99.90;;;;;;5047348;28;20833;-84
2022/04/25 09:23:44;;;;;;;9.00;5.37;;;10.70;99.90;;;;;;5079174;28;20874;-84
2022/04/25 09:26:20;;;;;;;7.33;5.30;;;10.80;99.90;;;;;;5046528;28;20449;-83
2022/04/25 09:28:50;;;;;;;8.25;5.63;;;11.00;99.90;;;;;;5047349;28;20423;-85
2022/04/25 09:31:17;;;;;;;7.88;5.35;;;11.20;99.90;;;;;;5033661;28;20480;-83
2022/04/25 09:33:44;;;;;;;6.85;5.30;;;11.20;99.90;;;;;;5026583;28;20919;-84
2022/04/25 09:36:10;;;;;;;6.90;5.33;;;11.20;99.90;;;;;;5027741;28;20381;-83
2022/04/25 09:38:39;;;;;;;6.70;5.05;;;11.40;99.90;;;;;;5026656;28;20812;-83
2022/04/25 09:41:12;;;;;;;6.28;4.80;;;11.60;99.90;;;;;;5029804;28;20382;-84
2022/04/25 09:43:40;;;;;;;6.43;4.95;;;12.30;99.90;;;;;;5025697;28;20765;-83
2022/04/25 09:46:20;;;;;;;5.95;4.60;;;12.70;99.90;;;;;;5130158;27;20397;-84
2022/04/25 09:49:04;;;;;;;7.60;4.88;;;12.60;99.90;;;;;;5103622;28;20381;-83
2022/04/25 09:51:30;;;;;;;8.27;4.78;;;12.60;99.90;;;;;;5085996;28;20382;-84
2022/04/25 09:53:57;;;;;;;24.98;6.45;;;12.70;99.90;;;;;;5075917;28;20747;-84
2022/04/25 09:56:29;;;;;;;7.83;4.53;;;12.80;99.90;;;;;;5086505;28;20389;-83
2022/04/25 09:59:03;;;;;;;10.38;4.78;;;13.00;99.90;;;;;;5085171;28;20415;-83
2022/04/25 10:01:29;;;;;;;8.45;5.72;;;12.70;99.90;;;;;;5080797;28;20382;-83
2022/04/25 10:03:55;;;;;;;7.63;4.97;;;12.60;99.90;;;;;;5082686;28;20415;-83
2022/04/25 10:06:22;;;;;;;7.63;4.70;;;12.60;99.90;;;;;;5081200;28;21566;-83
2022/04/25 10:08:49;;;;;;;5.70;4.67;;;12.90;99.90;;;;;;5084587;28;20399;-85
2022/04/25 10:11:18;;;;;;;6.15;5.43;;;13.00;99.90;;;;;;5085763;28;20447;-82
2022/04/25 10:13:45;;;;;;;7.63;4.70;;;12.70;99.90;;;;;;5075151;28;20385;-84
2022/04/25 10:16:11;;;;;;;6.95;5.03;;;12.50;99.90;;;;;;5086400;28;20381;-84
2022/04/25 10:18:38;;;;;;;8.13;5.28;;;12.50;99.90;;;;;;5084593;27;20981;-82
2022/04/25 10:21:07;;;;;;;7.68;4.75;;;12.50;99.90;;;;;;5085614;28;20388;-83
2022/04/25 10:23:33;;;;;;;6.63;4.60;;;12.50;99.90;;;;;;5082754;28;20893;-85
2022/04/25 10:26:00;;;;;;;5.40;4.57;;;12.60;99.90;;;;;;5086780;28;20883;-83
2022/04/25 10:28:31;;;;;;;6.15;4.53;;;12.70;99.90;;;;;;5081562;28;20910;-84
2022/04/25 10:31:05;;;;;;;6.32;4.82;;;13.00;99.90;;;;;;5073801;28;20396;-83
2022/04/25 10:33:49;;;;;;;6.40;4.75;;;13.00;99.90;;;;;;5084549;27;21063;-82
2022/04/25 10:36:37;;;;;;;8.20;5.22;;;13.00;99.90;;;;;;5080192;28;20381;-85
2022/04/25 10:39:18;;;;;;;7.72;4.60;;;13.20;99.90;;;;;;5101664;28;20480;-83
2022/04/25 10:44:48;;;;;;;6.13;4.35;;;13.70;99.90;;;;;;5091495;28;20439;-84
2022/04/25 10:47:16;;;;;;;5.13;4.23;;;13.90;99.90;;;;;;5090242;28;20374;-84
2022/04/25 10:49:56;;;;;;;5.47;4.07;;;14.00;99.90;;;;;;5084499;27;20427;-81
2022/04/25 10:52:33;;;;;;;7.67;4.50;;;14.20;99.90;;;;;;5092503;28;20434;-82
2022/04/25 10:55:23;;;;;;;6.35;5.05;;;14.30;99.90;;;;;;5077836;28;20398;-82
2022/04/25 10:58:04;;;;;;;6.82;4.28;;;14.20;99.90;;;;;;5073717;28;20378;-82
2022/04/25 11:00:41;;;;;;;7.20;5.13;;;14.30;99.90;;;;;;5073219;28;20744;-84
2022/04/25 11:03:25;;;;;;;8.02;4.40;;;14.40;99.90;;;;;;5087624;27;20405;-85
2022/04/25 11:05:56;;;;;;;7.25;4.93;;;14.30;99.90;;;;;;5075008;28;20918;-83
2022/04/25 11:08:22;;;;;;;6.75;4.55;;;14.10;99.90;;;;;;5074815;28;20382;-84
2022/04/25 11:11:13;;;;;;;6.53;4.43;;;14.10;99.90;;;;;;5072716;28;20436;-84
2022/04/25 11:13:51;;;;;;;6.78;4.50;;;14.50;99.90;;;;;;5070098;28;20697;-84
2022/04/25 11:16:21;;;;;;;6.40;4.75;;;14.70;99.90;;;;;;5071505;28;20394;-85
2022/04/25 11:19:05;;;;;;;6.60;4.70;;;14.90;99.90;;;;;;5073100;28;20402;-83
2022/04/25 11:21:32;;;;;;;6.38;4.82;;;14.80;99.90;;;;;;5069249;28;20405;-84
2022/04/25 11:24:01;;;;;;;6.13;4.57;;;14.60;99.90;;;;;;5056292;28;20440;-84
2022/04/25 11:26:26;;;;;;;7.45;5.05;;;14.40;99.90;;;;;;5071744;28;20389;-83
2022/04/25 11:28:58;;;;;;;5.63;4.67;;;14.40;99.90;;;;;;5068767;28;20478;-81
2022/04/25 11:31:39;;;;;;;6.40;4.28;;;14.20;99.90;;;;;;5070358;28;20436;-83
2022/04/25 11:34:16;;;;;;;16.10;7.43;;;14.00;99.90;;;;;;5070920;28;20900;-84
2022/04/25 11:36:44;;;;;;;6.18;4.30;;;14.30;99.90;;;;;;5066447;28;20405;-85
2022/04/25 11:41:58;;;;;;;5.78;4.43;;;14.60;99.90;;;;;;5071612;28;20910;-83
2022/04/25 11:44:24;;;;;;;5.87;4.20;;;14.70;99.90;;;;;;5074219;28;20394;-81
2022/04/25 11:46:51;;;;;;;6.97;4.75;;;14.70;99.90;;;;;;5074181;28;20436;-85
2022/04/25 11:49:29;;;;;;;8.37;4.60;;;15.00;99.90;;;;;;5062633;28;20815;-84
2022/04/25 11:51:58;;;;;;;5.88;4.15;;;15.10;99.90;;;;;;5068715;28;20752;-86
2022/04/25 11:54:24;;;;;;;6.03;4.60;;;15.20;99.90;;;;;;5071213;28;20467;-85
2022/04/25 11:56:50;;;;;;;7.03;4.43;;;15.20;99.90;;;;;;5057817;28;20387;-84
2022/04/25 11:59:18;;;;;;;5.47;4.03;;;15.00;99.90;;;;;;5054234;28;20435;-82
2022/04/25 12:01:52;;;;;;;7.13;4.38;;;15.20;99.90;;;;;;5070934;28;20457;-85
2022/04/25 12:04:19;;;;;;;5.57;4.22;;;15.30;99.90;;;;;;5069697;28;20425;-83
2022/04/25 12:07:03;;;;;;;6.55;4.57;;;15.30;99.90;;;;;;5066443;28;20836;-83
2022/04/25 12:15:34;;;;;;;8.15;4.80;;;15.10;99.90;;;;;;5069530;28;21009;-81
2022/04/25 12:18:18;;;;;;;7.00;4.43;;;15.00;99.90;;;;;;5054845;28;20413;-83
2022/04/25 12:21:00;;;;;;;6.85;4.35;;;15.30;99.90;;;;;;5072163;28;20413;-83
2022/04/25 12:23:34;;;;;;;6.35;4.65;;;15.60;99.90;;;;;;5064914;28;20449;-84
2022/04/25 12:26:03;;;;;;;6.40;4.93;;;15.80;99.90;;;;;;5065142;28;20410;-83
2022/04/25 12:28:37;;;;;;;6.85;5.05;;;15.80;99.90;;;;;;5068004;28;20389;-83
2022/04/25 12:31:11;;;;;;;7.10;4.60;;;15.70;99.90;;;;;;5066893;28;20394;-86
2022/04/25 12:33:39;;;;;;;6.78;5.15;;;15.50;99.90;;;;;;5061953;28;20963;-82
2022/04/25 12:36:18;;;;;;;6.90;4.30;;;15.40;99.90;;;;;;5062340;28;20897;-84
2022/04/25 12:38:50;;;;;;;8.18;4.93;;;15.30;99.90;;;;;;5073411;28;20402;-84
2022/04/25 12:41:36;;;;;;;6.32;4.60;;;15.30;99.90;;;;;;5072395;28;20875;-84
2022/04/25 12:44:11;;;;;;;6.80;4.30;;;15.50;99.90;;;;;;5072308;28;20382;-84
2022/04/25 12:46:47;;;;;;;7.30;4.70;;;15.60;99.90;;;;;;5072145;28;20400;-84
2022/04/25 12:49:14;;;;;;;6.97;4.45;;;15.60;99.90;;;;;;5068860;28;20404;-83
2022/04/25 12:51:44;;;;;;;20.67;5.57;;;15.70;99.90;;;;;;5071934;28;20469;-83
2022/04/25 12:54:32;;;;;;;5.57;4.38;;;16.00;99.90;;;;;;5074409;28;20501;-83
2022/04/25 12:57:20;;;;;;;7.97;4.97;;;15.70;99.90;;;;;;5069809;28;20382;-84
2022/04/25 12:59:58;;;;;;;9.03;5.27;;;15.30;99.90;;;;;;5072441;28;20385;-83
2022/04/25 13:02:35;;;;;;;6.80;5.07;;;15.20;99.90;;;;;;5072630;28;20393;-82
2022/04/25 13:05:07;;;;;;;7.20;4.77;;;15.10;99.90;;;;;;5068105;28;20406;-81
2022/04/25 13:07:48;;;;;;;6.35;4.72;;;15.20;99.90;;;;;;5069484;28;20493;-87
2022/04/25 13:10:18;;;;;;;7.60;4.60;;;15.20;99.90;;;;;;5073925;28;20420;-85
2022/04/25 13:12:56;;;;;;;9.40;5.28;;;15.20;99.90;;;;;;5068792;28;20409;-87
2022/04/25 13:15:28;;;;;;;6.43;4.72;;;15.20;99.90;;;;;;5070929;28;20414;-82
2022/04/25 13:17:56;;;;;;;6.82;4.93;;;15.40;99.90;;;;;;5069465;28;20390;-85
2022/04/25 13:20:25;;;;;;;6.28;4.60;;;15.40;99.90;;;;;;5066773;28;20722;-84
2022/04/25 13:22:51;;;;;;;15.15;4.50;;;15.50;99.90;;;;;;5069226;28;20517;-85
2022/04/25 13:25:23;;;;;;;6.17;4.37;;;15.70;99.90;;;;;;5069614;28;20875;-85
2022/04/25 13:27:49;;;;;;;5.77;4.20;;;15.70;99.90;;;;;;5069969;28;20398;-84